Terminal Aerodrome Forecast
Issued by NWS

Home | Current Version | Previous Version | Text Only | Print | Product List | Glossary On
Versions: 1 2 3 4 5 6 7 8 9 10 11 12 13 14
000
FTAK31 PANC 260535
TAFAVD
TAF
PAVD 260535Z 2606/2706 VRB03KT P6SM VCSH BKN050
      TEMPO 2608/2612 BKN035
     FM261200 VRB03KT P6SM VCSH BKN035
     FM262100 24006KT P6SM VCSH BKN050
      AMD LTD TO CLD VIS AND WIND=

USA.gov is the U.S. government's official web portal to all federal, state and local government web resources and services.